createdAt,value
2023-01-26T00:02:21.297Z,1.65
2023-01-26T00:04:50.232Z,1.63
2023-01-26T00:07:19.144Z,1.55
2023-01-26T00:09:47.796Z,1.62
2023-01-26T00:12:18.082Z,1.62
2023-01-26T00:14:52.822Z,1.61
2023-01-26T00:17:28.241Z,1.60
2023-01-26T00:19:59.269Z,1.60
2023-01-26T00:22:29.171Z,1.65
2023-01-26T00:24:57.886Z,1.67
2023-01-26T00:27:28.080Z,1.69
2023-01-26T00:29:56.919Z,1.69
2023-01-26T00:32:25.701Z,1.68
2023-01-26T00:34:54.531Z,1.68
2023-01-26T00:37:23.472Z,1.67
2023-01-26T00:39:52.825Z,1.61
2023-01-26T00:42:22.037Z,1.60
2023-01-26T00:44:53.331Z,1.62
2023-01-26T00:47:22.111Z,1.62
2023-01-26T00:49:52.092Z,1.65
2023-01-26T00:52:21.016Z,1.63
2023-01-26T00:54:49.768Z,1.59
2023-01-26T00:57:19.612Z,1.61
2023-01-26T00:59:48.401Z,1.59
2023-01-26T01:02:18.609Z,1.57
2023-01-26T01:04:47.902Z,1.60
2023-01-26T01:07:16.711Z,1.62
2023-01-26T01:09:47.664Z,1.59
2023-01-26T01:12:16.556Z,1.58
2023-01-26T01:14:45.402Z,1.58
2023-01-26T01:17:14.603Z,1.55
2023-01-26T01:19:44.942Z,1.52
2023-01-26T01:22:14.954Z,1.54
2023-01-26T01:24:44.449Z,1.57
2023-01-26T01:27:13.322Z,1.57
2023-01-26T01:29:42.014Z,1.58
2023-01-26T01:32:11.234Z,1.54
2023-01-26T01:34:40.062Z,1.51
2023-01-26T01:37:10.413Z,1.54
2023-01-26T01:39:39.237Z,1.57
2023-01-26T01:42:07.950Z,1.59
2023-01-26T01:44:37.779Z,1.57
2023-01-26T01:47:12.814Z,1.57
2023-01-26T01:49:47.602Z,1.57
2023-01-26T01:52:21.541Z,1.59
2023-01-26T01:54:55.682Z,1.62
2023-01-26T01:57:29.348Z,1.62
2023-01-26T02:00:04.102Z,1.62
2023-01-26T02:03:06.005Z,1.61
2023-01-26T02:05:40.681Z,1.62
2023-01-26T02:08:16.852Z,1.63
2023-01-26T02:10:50.245Z,1.67
2023-01-26T02:13:20.701Z,1.66
2023-01-26T02:15:51.054Z,1.63
2023-01-26T02:18:19.415Z,1.66
2023-01-26T02:20:51.442Z,1.70
2023-01-26T02:23:31.814Z,1.71
2023-01-26T02:26:11.524Z,1.68
2023-01-26T02:28:41.069Z,1.69
2023-01-26T02:31:11.482Z,1.70
2023-01-26T02:33:42.190Z,1.72
2023-01-26T02:36:20.038Z,1.74
2023-01-26T02:39:00.255Z,1.75
2023-01-26T02:41:40.701Z,1.77
2023-01-26T02:44:12.824Z,1.78
2023-01-26T02:46:41.980Z,1.78
2023-01-26T02:49:20.541Z,1.79
2023-01-26T02:51:49.403Z,1.80
2023-01-26T02:54:33.105Z,1.77
2023-01-26T02:57:04.389Z,1.72
2023-01-26T02:59:33.210Z,1.69
2023-01-26T03:02:02.114Z,1.71
2023-01-26T03:04:30.940Z,1.72
2023-01-26T03:06:59.806Z,1.74
2023-01-26T03:09:28.670Z,1.77
2023-01-26T03:11:57.401Z,1.79
2023-01-26T03:14:27.663Z,1.79
2023-01-26T03:16:57.221Z,1.78
2023-01-26T03:19:34.932Z,1.75
2023-01-26T03:22:22.049Z,1.78
2023-01-26T03:24:59.689Z,1.79
2023-01-26T03:27:28.952Z,1.80
2023-01-26T03:30:05.395Z,1.78
2023-01-26T03:32:34.284Z,1.78
2023-01-26T03:35:04.244Z,1.79
2023-01-26T03:37:34.675Z,1.78
2023-01-26T03:40:19.338Z,1.73
2023-01-26T03:42:57.900Z,1.78
2023-01-26T03:45:36.912Z,1.79
2023-01-26T03:48:20.171Z,1.80
2023-01-26T03:50:57.772Z,1.81
2023-01-26T03:53:36.383Z,1.81
2023-01-26T03:56:18.225Z,1.80
2023-01-26T03:58:50.372Z,1.75
2023-01-26T04:01:28.292Z,1.81
2023-01-26T04:04:10.018Z,1.80
2023-01-26T04:06:53.783Z,1.79
2023-01-26T04:09:23.332Z,1.79
2023-01-26T04:11:52.195Z,1.78
2023-01-26T04:14:29.806Z,1.81
2023-01-26T04:17:13.082Z,1.80
2023-01-26T04:19:51.672Z,1.81
2023-01-26T04:22:20.580Z,1.81
2023-01-26T04:24:50.101Z,1.80
2023-01-26T04:27:19.294Z,1.79
2023-01-26T04:29:48.143Z,1.81
2023-01-26T04:32:18.460Z,1.81
2023-01-26T04:34:48.843Z,1.80
2023-01-26T04:37:23.305Z,1.79
2023-01-26T04:39:53.652Z,1.78
2023-01-26T04:42:25.533Z,1.77
2023-01-26T04:44:55.549Z,1.73
2023-01-26T04:47:29.122Z,1.70
2023-01-26T04:49:59.607Z,1.70
2023-01-26T04:52:28.705Z,1.71
2023-01-26T04:54:57.396Z,1.74
2023-01-26T04:57:26.456Z,1.73
2023-01-26T04:59:56.792Z,1.70
2023-01-26T05:02:27.064Z,1.67
2023-01-26T05:04:55.882Z,1.66
2023-01-26T05:07:26.021Z,1.63
2023-01-26T05:09:55.955Z,1.62
2023-01-26T05:12:36.487Z,1.63
2023-01-26T05:15:16.646Z,1.66
2023-01-26T05:17:59.995Z,1.68
2023-01-26T05:20:40.228Z,1.67
2023-01-26T05:23:35.254Z,1.67
2023-01-26T05:26:15.151Z,1.66
2023-01-26T05:28:55.483Z,1.66
2023-01-26T05:31:24.818Z,1.69
2023-01-26T05:33:56.480Z,1.70
2023-01-26T05:36:26.545Z,1.73
2023-01-26T05:38:55.601Z,1.73
2023-01-26T05:41:27.567Z,1.71
2023-01-26T05:44:10.215Z,1.70
2023-01-26T05:46:44.522Z,1.72
2023-01-26T05:49:14.842Z,1.73
2023-01-26T05:51:43.690Z,1.72
2023-01-26T05:54:12.652Z,1.71
2023-01-26T05:56:41.924Z,1.70
2023-01-26T05:59:10.811Z,1.71
2023-01-26T06:01:40.680Z,1.67
2023-01-26T06:04:10.583Z,1.68
2023-01-26T06:06:56.201Z,1.73
2023-01-26T06:09:28.364Z,1.75
2023-01-26T06:12:07.791Z,1.78
2023-01-26T06:14:47.684Z,1.75
2023-01-26T06:17:19.583Z,1.76
2023-01-26T06:19:51.525Z,1.79
2023-01-26T06:22:22.092Z,1.80
2023-01-26T06:24:52.428Z,1.82
2023-01-26T06:27:22.675Z,1.81
2023-01-26T06:29:53.283Z,1.79
2023-01-26T06:32:22.309Z,1.82
2023-01-26T06:34:54.958Z,1.77
2023-01-26T06:37:26.574Z,1.86
2023-01-26T06:39:55.835Z,1.85
2023-01-26T06:42:24.797Z,1.81
2023-01-26T06:44:53.711Z,1.82
2023-01-26T06:47:22.332Z,1.81
2023-01-26T06:49:51.934Z,1.85
2023-01-26T06:52:29.779Z,1.87
2023-01-26T06:55:05.099Z,1.82
2023-01-26T06:57:45.445Z,1.85
2023-01-26T07:00:25.437Z,1.86
2023-01-26T07:03:05.317Z,1.86
2023-01-26T07:05:34.349Z,1.89
2023-01-26T07:08:06.816Z,1.89
2023-01-26T07:10:35.860Z,1.84
2023-01-26T07:13:05.764Z,1.83
2023-01-26T07:15:34.854Z,1.86
2023-01-26T07:18:03.586Z,1.85
2023-01-26T07:20:32.342Z,1.86
2023-01-26T07:23:01.183Z,1.83
2023-01-26T07:25:31.440Z,1.84
2023-01-26T07:28:00.836Z,1.86
2023-01-26T07:30:29.727Z,1.88
2023-01-26T07:33:01.725Z,1.89
2023-01-26T07:35:30.782Z,1.93
2023-01-26T07:37:59.696Z,1.94
2023-01-26T07:40:28.529Z,1.99
2023-01-26T07:42:59.957Z,2.01
2023-01-26T07:45:39.909Z,2.02
2023-01-26T07:48:08.684Z,2.02
2023-01-26T07:50:37.435Z,2.02
2023-01-26T07:53:07.016Z,1.98
2023-01-26T07:55:35.440Z,1.99
2023-01-26T07:58:05.559Z,2.01
2023-01-26T08:00:34.429Z,2.02
2023-01-26T08:03:03.197Z,1.97
2023-01-26T08:05:33.556Z,1.97
2023-01-26T08:08:03.029Z,2.02
2023-01-26T08:10:32.451Z,2.09
2023-01-26T08:13:02.211Z,2.10
2023-01-26T08:15:32.381Z,2.10
2023-01-26T08:18:04.538Z,2.12
2023-01-26T08:20:33.349Z,2.16
2023-01-26T08:23:02.075Z,2.13
2023-01-26T08:25:33.315Z,2.14
2023-01-26T08:28:03.631Z,2.14
2023-01-26T08:30:33.753Z,2.18
2023-01-26T08:33:02.532Z,2.25
2023-01-26T08:35:33.207Z,2.24
2023-01-26T08:38:02.198Z,2.23
2023-01-26T08:40:30.830Z,2.21
2023-01-26T08:43:02.676Z,2.24
2023-01-26T08:45:33.448Z,2.29
2023-01-26T08:48:02.476Z,2.29
2023-01-26T08:50:31.137Z,2.29
2023-01-26T08:52:59.949Z,2.31
2023-01-26T08:55:29.892Z,2.35
2023-01-26T08:57:58.938Z,2.35
2023-01-26T09:00:27.918Z,2.27
2023-01-26T09:03:01.785Z,2.28
2023-01-26T09:05:34.761Z,2.27
2023-01-26T09:08:03.547Z,2.25
2023-01-26T09:10:32.455Z,2.23
2023-01-26T09:13:01.852Z,2.26
2023-01-26T09:15:30.779Z,2.27
2023-01-26T09:18:01.290Z,2.29
2023-01-26T09:20:30.236Z,2.32
2023-01-26T09:22:59.297Z,2.35
2023-01-26T09:25:27.984Z,2.36
2023-01-26T09:27:56.660Z,2.37
2023-01-26T09:30:26.310Z,2.36
2023-01-26T09:33:01.198Z,2.38
2023-01-26T09:35:31.321Z,2.39
2023-01-26T09:38:00.198Z,2.48
2023-01-26T09:40:39.001Z,2.51
2023-01-26T09:43:22.385Z,2.50
2023-01-26T09:46:02.335Z,2.52
2023-01-26T09:48:40.990Z,2.55
2023-01-26T09:51:16.137Z,2.59
2023-01-26T09:53:50.162Z,2.59
2023-01-26T09:56:23.962Z,2.58
2023-01-26T09:58:59.341Z,2.55
2023-01-26T10:01:36.824Z,2.59
2023-01-26T10:04:17.361Z,2.61
2023-01-26T10:06:47.573Z,2.61
2023-01-26T10:09:33.447Z,2.64
2023-01-26T10:12:04.209Z,2.65
2023-01-26T10:14:37.616Z,2.62
2023-01-26T10:17:08.843Z,2.67
2023-01-26T10:19:45.317Z,2.68
2023-01-26T10:22:19.680Z,2.70
2023-01-26T10:24:51.821Z,2.70
2023-01-26T10:27:20.546Z,2.63
2023-01-26T10:29:49.178Z,2.58
2023-01-26T10:32:19.818Z,2.56
2023-01-26T10:34:53.680Z,2.54
2023-01-26T10:37:24.715Z,2.60
2023-01-26T10:40:01.800Z,2.56
2023-01-26T10:42:32.785Z,2.59
2023-01-26T10:45:04.613Z,2.61
2023-01-26T10:47:33.612Z,2.62
2023-01-26T10:50:22.336Z,2.59
2023-01-26T10:53:03.055Z,2.52
2023-01-26T10:55:33.276Z,2.55
2023-01-26T10:58:02.843Z,2.55
2023-01-26T11:00:34.151Z,2.59
2023-01-26T11:03:16.048Z,2.59
2023-01-26T11:05:48.268Z,2.54
2023-01-26T11:08:33.788Z,2.56
2023-01-26T11:11:03.722Z,2.57
2023-01-26T11:13:32.557Z,2.54
2023-01-26T11:16:13.557Z,2.53
2023-01-26T11:18:48.526Z,2.55
2023-01-26T11:21:23.799Z,2.54
2023-01-26T11:23:59.875Z,2.49
2023-01-26T11:27:07.275Z,2.55
2023-01-26T11:29:53.409Z,2.58
2023-01-26T11:32:32.142Z,2.61
2023-01-26T11:35:11.641Z,2.61
2023-01-26T11:37:58.244Z,2.65
2023-01-26T11:40:38.225Z,2.67
2023-01-26T11:43:34.442Z,2.67
2023-01-26T11:46:22.454Z,2.68
2023-01-26T11:49:06.014Z,2.66
2023-01-26T11:51:50.072Z,2.45
2023-01-26T11:54:41.573Z,2.64
2023-01-26T11:57:22.164Z,2.65
2023-01-26T11:59:54.669Z,2.67
2023-01-26T12:02:31.237Z,2.68
2023-01-26T12:05:06.689Z,2.65
2023-01-26T12:07:55.013Z,2.43
2023-01-26T12:10:32.053Z,2.63
2023-01-26T12:13:07.080Z,2.58
2023-01-26T12:15:39.028Z,2.61
2023-01-26T12:18:16.764Z,2.59
2023-01-26T12:20:48.032Z,2.61
2023-01-26T12:23:28.901Z,2.61
2023-01-26T12:26:02.131Z,2.56
2023-01-26T12:28:34.443Z,2.58
2023-01-26T12:31:14.858Z,2.59
2023-01-26T12:33:44.090Z,2.61
2023-01-26T12:36:42.611Z,2.62
2023-01-26T12:39:14.912Z,2.60
2023-01-26T12:42:02.572Z,2.58
2023-01-26T12:44:39.231Z,2.60
2023-01-26T12:47:16.334Z,2.62
2023-01-26T12:49:52.908Z,2.64
2023-01-26T12:52:27.373Z,2.66
2023-01-26T12:55:01.442Z,2.64
2023-01-26T12:57:40.351Z,2.65
2023-01-26T13:00:20.876Z,2.66
2023-01-26T13:02:54.428Z,2.63
2023-01-26T13:05:29.542Z,2.63
2023-01-26T13:07:58.440Z,2.67
2023-01-26T13:10:45.585Z,2.64
2023-01-26T13:13:30.658Z,2.59
2023-01-26T13:16:22.789Z,2.57
2023-01-26T13:18:54.141Z,2.61
2023-01-26T13:21:29.355Z,2.60
2023-01-26T13:23:58.280Z,2.63
2023-01-26T13:26:46.987Z,2.64
2023-01-26T13:29:37.406Z,2.61
2023-01-26T13:32:28.866Z,2.62
2023-01-26T13:35:04.661Z,2.60
2023-01-26T13:37:42.705Z,2.58
2023-01-26T13:40:20.825Z,2.59
2023-01-26T13:42:57.956Z,2.55
2023-01-26T13:45:36.838Z,2.60
2023-01-26T13:48:14.867Z,2.58
2023-01-26T13:50:44.698Z,2.59
2023-01-26T13:53:24.776Z,2.57
2023-01-26T13:55:58.358Z,2.57
2023-01-26T13:58:28.270Z,2.52
2023-01-26T14:01:02.977Z,2.48
2023-01-26T14:03:32.462Z,2.50
2023-01-26T14:06:09.307Z,2.50
2023-01-26T14:08:39.847Z,2.45
2023-01-26T14:11:19.027Z,2.44
2023-01-26T14:13:53.086Z,2.44
2023-01-26T14:16:26.669Z,2.42
2023-01-26T14:19:06.918Z,2.43
2023-01-26T14:21:48.554Z,2.42
2023-01-26T14:24:18.028Z,2.44
2023-01-26T14:26:46.681Z,2.44
2023-01-26T14:29:23.240Z,2.41
2023-01-26T14:31:55.862Z,2.39
2023-01-26T14:34:27.243Z,2.35
2023-01-26T14:37:07.790Z,2.37
2023-01-26T14:39:36.620Z,2.38
2023-01-26T14:42:06.144Z,2.37
2023-01-26T14:44:34.541Z,2.38
2023-01-26T14:47:10.544Z,2.37
2023-01-26T14:49:49.233Z,2.32
2023-01-26T14:52:25.905Z,2.33
2023-01-26T14:54:58.111Z,2.30
2023-01-26T14:57:29.795Z,2.23
2023-01-26T15:00:00.940Z,2.27
2023-01-26T15:02:39.206Z,2.22
2023-01-26T15:05:14.000Z,2.18
2023-01-26T15:07:45.070Z,2.18
2023-01-26T15:10:35.543Z,2.18
2023-01-26T15:13:09.113Z,2.20
2023-01-26T15:15:40.303Z,2.18
2023-01-26T15:18:21.741Z,2.14
2023-01-26T15:21:00.967Z,2.15
2023-01-26T15:23:32.359Z,2.15
2023-01-26T15:26:09.197Z,2.15
2023-01-26T15:28:39.198Z,2.16
2023-01-26T15:31:08.659Z,2.13
2023-01-26T15:33:48.183Z,2.12
2023-01-26T15:36:36.091Z,2.10
2023-01-26T15:39:14.117Z,2.14
2023-01-26T15:41:43.613Z,2.15
2023-01-26T15:44:15.901Z,2.13
2023-01-26T15:46:45.541Z,2.15
2023-01-26T15:49:18.562Z,2.13
2023-01-26T15:51:47.464Z,2.11
2023-01-26T15:54:16.550Z,2.11
2023-01-26T15:56:45.493Z,2.12
2023-01-26T15:59:14.193Z,2.13
2023-01-26T16:01:43.715Z,2.14
2023-01-26T16:04:15.633Z,2.11
2023-01-26T16:06:44.810Z,2.13
2023-01-26T16:09:13.471Z,2.14
2023-01-26T16:11:46.250Z,2.14
2023-01-26T16:14:15.555Z,2.12
2023-01-26T16:16:44.619Z,2.09
2023-01-26T16:19:23.299Z,1.93
2023-01-26T16:21:57.469Z,2.09
2023-01-26T16:24:26.620Z,2.05
2023-01-26T16:26:55.347Z,2.08
2023-01-26T16:29:24.105Z,2.06
2023-01-26T16:31:52.926Z,2.06
2023-01-26T16:34:21.709Z,2.05
2023-01-26T16:36:50.447Z,2.04
2023-01-26T16:39:21.667Z,2.04
2023-01-26T16:41:50.692Z,2.06
2023-01-26T16:44:19.784Z,2.02
2023-01-26T16:46:48.649Z,2.04
2023-01-26T16:49:17.567Z,2.06
2023-01-26T16:51:46.757Z,2.07
2023-01-26T16:54:16.229Z,2.07
2023-01-26T16:56:46.431Z,2.01
2023-01-26T16:59:15.574Z,1.97
2023-01-26T17:01:44.521Z,1.91
2023-01-26T17:04:13.356Z,1.96
2023-01-26T17:06:42.108Z,1.99
2023-01-26T17:09:11.557Z,1.99
2023-01-26T17:11:40.397Z,1.94
2023-01-26T17:14:12.243Z,1.86
2023-01-26T17:16:41.122Z,1.91
2023-01-26T17:19:09.918Z,1.93
2023-01-26T17:21:39.165Z,1.92
2023-01-26T17:24:08.261Z,1.88
2023-01-26T17:26:37.026Z,1.86
2023-01-26T17:29:05.806Z,1.89
2023-01-26T17:31:36.009Z,1.89
2023-01-26T17:34:04.848Z,1.88
2023-01-26T17:36:33.756Z,1.87
2023-01-26T17:39:02.644Z,1.89
2023-01-26T17:41:31.333Z,1.84
2023-01-26T17:44:00.186Z,1.82
2023-01-26T17:46:28.896Z,1.84
2023-01-26T17:48:59.080Z,1.84
2023-01-26T17:51:27.906Z,1.82
2023-01-26T17:53:56.556Z,1.86
2023-01-26T17:56:25.313Z,1.85
2023-01-26T17:58:55.852Z,1.82
2023-01-26T18:01:27.449Z,1.86
2023-01-26T18:03:57.249Z,1.86
2023-01-26T18:06:27.491Z,1.84
2023-01-26T18:08:56.679Z,1.85
2023-01-26T18:11:25.507Z,1.83
2023-01-26T18:13:55.542Z,1.82
2023-01-26T18:16:24.467Z,1.78
2023-01-26T18:18:56.654Z,1.81
2023-01-26T18:21:29.810Z,1.83
2023-01-26T18:24:00.905Z,1.80
2023-01-26T18:26:32.703Z,1.76
2023-01-26T18:29:01.710Z,1.74
2023-01-26T18:31:33.608Z,1.74
2023-01-26T18:34:04.939Z,1.73
2023-01-26T18:36:35.272Z,1.73
2023-01-26T18:39:07.717Z,1.72
2023-01-26T18:41:36.511Z,1.71
2023-01-26T18:44:05.262Z,1.70
2023-01-26T18:46:34.068Z,1.71
2023-01-26T18:49:03.888Z,1.67
2023-01-26T18:51:35.874Z,1.70
2023-01-26T18:54:05.956Z,1.71
2023-01-26T18:56:36.722Z,1.74
2023-01-26T18:59:06.663Z,1.74
2023-01-26T19:01:35.564Z,1.72
2023-01-26T19:04:07.044Z,1.75
2023-01-26T19:06:37.964Z,1.74
2023-01-26T19:09:09.521Z,1.72
2023-01-26T19:11:40.101Z,1.67
2023-01-26T19:14:09.675Z,1.70
2023-01-26T19:16:38.401Z,1.70
2023-01-26T19:19:07.377Z,1.73
2023-01-26T19:21:37.671Z,1.76
2023-01-26T19:24:07.372Z,1.77
2023-01-26T19:26:35.973Z,1.74
2023-01-26T19:29:05.641Z,1.75
2023-01-26T19:31:36.555Z,1.74
2023-01-26T19:34:07.556Z,1.70
2023-01-26T19:36:38.435Z,1.69
2023-01-26T19:39:08.016Z,1.73
2023-01-26T19:41:38.911Z,1.73
2023-01-26T19:44:07.859Z,1.73
2023-01-26T19:46:36.583Z,1.68
2023-01-26T19:49:07.557Z,1.64
2023-01-26T19:51:37.728Z,1.64
2023-01-26T19:54:06.638Z,1.65
2023-01-26T19:56:37.392Z,1.64
2023-01-26T19:59:08.067Z,1.64
2023-01-26T20:01:37.221Z,1.61
2023-01-26T20:04:09.330Z,1.64
2023-01-26T20:06:40.393Z,1.64
2023-01-26T20:09:10.450Z,1.63
2023-01-26T20:11:39.960Z,1.62
2023-01-26T20:14:12.717Z,1.66
2023-01-26T20:16:41.629Z,1.66
2023-01-26T20:19:12.379Z,1.67
2023-01-26T20:21:43.147Z,1.61
2023-01-26T20:24:15.334Z,1.58
2023-01-26T20:26:44.794Z,1.48
2023-01-26T20:29:16.411Z,1.59
2023-01-26T20:31:45.623Z,1.62
2023-01-26T20:34:15.031Z,1.61
2023-01-26T20:36:45.677Z,1.62
2023-01-26T20:39:18.928Z,1.59
2023-01-26T20:41:47.811Z,1.58
2023-01-26T20:44:16.549Z,1.58
2023-01-26T20:46:45.687Z,1.53
2023-01-26T20:49:16.497Z,1.55
2023-01-26T20:51:49.223Z,1.50
2023-01-26T20:54:20.047Z,1.55
2023-01-26T20:56:50.534Z,1.54
2023-01-26T20:59:20.888Z,1.53
2023-01-26T21:01:49.924Z,1.51
2023-01-26T21:04:19.004Z,1.50
2023-01-26T21:06:49.206Z,1.53
2023-01-26T21:09:18.800Z,1.53
2023-01-26T21:11:47.507Z,1.51
2023-01-26T21:14:16.691Z,1.52
2023-01-26T21:16:45.382Z,1.57
2023-01-26T21:19:14.095Z,1.57
2023-01-26T21:21:44.269Z,1.56
2023-01-26T21:24:14.660Z,1.54
2023-01-26T21:26:43.969Z,1.30
2023-01-26T21:29:16.508Z,1.54
2023-01-26T21:31:49.144Z,1.52
2023-01-26T21:34:18.010Z,1.57
2023-01-26T21:36:46.712Z,1.57
2023-01-26T21:39:16.973Z,1.54
2023-01-26T21:41:54.749Z,1.54
2023-01-26T21:44:25.620Z,1.54
2023-01-26T21:46:56.629Z,1.50
2023-01-26T21:49:26.093Z,1.53
2023-01-26T21:52:03.938Z,1.51
2023-01-26T21:54:34.704Z,1.47
2023-01-26T21:57:25.764Z,1.50
2023-01-26T21:59:54.061Z,1.49
2023-01-26T22:02:23.293Z,1.47
2023-01-26T22:04:52.522Z,1.49
2023-01-26T22:07:21.364Z,1.51
2023-01-26T22:09:51.580Z,1.51
2023-01-26T22:12:20.475Z,1.46
2023-01-26T22:14:49.198Z,1.34
2023-01-26T22:17:18.005Z,1.38
2023-01-26T22:19:47.290Z,1.43
2023-01-26T22:22:16.153Z,1.45
2023-01-26T22:24:44.889Z,1.46
2023-01-26T22:27:15.184Z,1.45
2023-01-26T22:29:43.961Z,1.45
2023-01-26T22:32:12.743Z,1.46
2023-01-26T22:34:41.542Z,1.41
2023-01-26T22:37:10.197Z,1.35
2023-01-26T22:39:38.979Z,1.34
2023-01-26T22:42:07.661Z,1.37
2023-01-26T22:44:37.866Z,1.38
2023-01-26T22:47:06.586Z,1.39
2023-01-26T22:49:35.545Z,1.42
2023-01-26T22:52:06.955Z,1.46
2023-01-26T22:54:35.810Z,1.43
2023-01-26T22:57:04.585Z,1.44
2023-01-26T22:59:33.449Z,1.33
2023-01-26T23:02:03.669Z,1.41
2023-01-26T23:04:32.557Z,1.37
2023-01-26T23:07:01.843Z,1.45
2023-01-26T23:09:30.648Z,1.41
2023-01-26T23:12:02.819Z,1.42
2023-01-26T23:14:32.414Z,1.48
2023-01-26T23:17:02.584Z,1.46
2023-01-26T23:19:33.842Z,1.39
2023-01-26T23:22:02.686Z,1.40
2023-01-26T23:24:31.299Z,1.45
2023-01-26T23:27:00.084Z,1.44
2023-01-26T23:29:28.938Z,1.38
2023-01-26T23:31:57.790Z,1.39
2023-01-26T23:34:28.010Z,1.39
2023-01-26T23:36:56.809Z,1.34
2023-01-26T23:39:25.571Z,1.41
2023-01-26T23:41:54.491Z,1.41
2023-01-26T23:44:23.131Z,1.43
2023-01-26T23:46:52.045Z,1.41
2023-01-26T23:49:20.788Z,1.35
2023-01-26T23:51:50.991Z,1.33
2023-01-26T23:54:19.774Z,1.32
2023-01-26T23:56:48.570Z,1.35
2023-01-26T23:59:17.290Z,1.37
